Time,TemperatureF,DewpointF,PressureIn,WindDirection,WindDirectionDegrees,WindSpeedMPH,WindSpeedGustMPH,Humidity,HourlyPrecipIn,Conditions,Clouds,dailyrainin,SolarRadiationWatts/m^2,SoftwareType,DateUTC
2013-09-21 00:02:00,49.0,28.0,-100.00,SE,124,2.0,3.0,44,0.00,,,0.00,0.000000,,2013-09-21 06:02:00,
2013-09-21 00:12:00,49.0,28.0,-100.00,SE,124,2.0,3.0,44,0.00,,,0.00,0.000000,,2013-09-21 06:12:00,
2013-09-21 00:53:00,47.0,29.0,-100.00,ESE,112,2.0,3.0,49,0.00,,,0.00,0.000000,,2013-09-21 06:53:00,
2013-09-21 01:01:00,47.0,29.0,-100.00,ESE,112,2.0,3.0,49,0.00,,,0.00,0.000000,,2013-09-21 07:01:00,
2013-09-21 01:11:00,47.0,29.0,-100.00,ESE,112,2.0,3.0,49,0.00,,,0.00,0.000000,,2013-09-21 07:11:00,
2013-09-21 01:21:00,47.0,29.0,-100.00,ESE,112,2.0,3.0,49,0.00,,,0.00,0.000000,,2013-09-21 07:21:00,
2013-09-21 01:22:00,45.0,28.0,-100.00,East,91,2.0,3.0,52,0.00,,,0.00,0.000000,,2013-09-21 07:22:00,
2013-09-21 01:52:00,45.0,28.0,-100.00,East,91,2.0,3.0,52,0.00,,,0.00,0.000000,,2013-09-21 07:52:00,
2013-09-21 02:03:00,45.0,28.0,-100.00,East,91,2.0,3.0,52,0.00,,,0.00,0.000000,,2013-09-21 08:03:00,
2013-09-21 02:13:00,45.0,28.0,-100.00,East,91,2.0,3.0,52,0.00,,,0.00,0.000000,,2013-09-21 08:13:00,
2013-09-21 02:22:00,45.0,30.0,-100.00,ENE,71,2.0,3.0,55,0.00,,,-99.99,0.000000,,2013-09-21 08:22:00,
2013-09-21 02:52:00,45.0,30.0,-100.00,ENE,71,2.0,3.0,55,0.00,,,-99.99,0.000000,,2013-09-21 08:52:00,
2013-09-21 03:02:00,45.0,30.0,-100.00,ENE,71,2.0,3.0,55,0.00,,,-99.99,0.000000,,2013-09-21 09:02:00,
2013-09-21 03:11:00,45.0,30.0,-100.00,ENE,71,2.0,3.0,55,0.00,,,-99.99,0.000000,,2013-09-21 09:11:00,
2013-09-21 03:22:00,43.0,28.0,-100.00,ESE,106,1.0,3.0,55,0.00,,,0.00,0.000000,,2013-09-21 09:22:00,
2013-09-21 03:54:00,43.0,28.0,-100.00,ESE,106,1.0,3.0,55,0.00,,,0.00,0.000000,,2013-09-21 09:54:00,
2013-09-21 04:03:00,43.0,28.0,-100.00,ESE,106,1.0,3.0,55,0.00,,,0.00,0.000000,,2013-09-21 10:03:00,
2013-09-21 04:12:00,43.0,28.0,-100.00,ESE,106,1.0,3.0,55,0.00,,,0.00,0.000000,,2013-09-21 10:12:00,
2013-09-21 04:22:00,41.0,29.0,-100.00,East,97,2.0,3.0,62,0.00,,,0.00,0.000000,,2013-09-21 10:22:00,
2013-09-21 04:52:00,41.0,29.0,-100.00,East,97,2.0,3.0,62,0.00,,,0.00,0.000000,,2013-09-21 10:52:00,
2013-09-21 05:03:00,41.0,29.0,-100.00,East,97,2.0,3.0,62,0.00,,,0.00,0.000000,,2013-09-21 11:03:00,
2013-09-21 05:11:00,41.0,29.0,-100.00,East,97,2.0,3.0,62,0.00,,,0.00,0.000000,,2013-09-21 11:11:00,
2013-09-21 05:52:00,41.0,30.0,-100.00,SE,129,2.0,4.0,64,0.00,,,0.00,0.000000,,2013-09-21 11:52:00,
2013-09-21 06:02:00,41.0,30.0,-100.00,SE,129,2.0,4.0,64,0.00,,,0.00,0.000000,,2013-09-21 12:02:00,
2013-09-21 06:12:00,41.0,30.0,-100.00,SE,129,2.0,4.0,64,0.00,,,0.00,0.000000,,2013-09-21 12:12:00,
2013-09-21 06:21:00,41.0,30.0,-100.00,SE,129,2.0,4.0,64,0.00,,,0.00,0.000000,,2013-09-21 12:21:00,
2013-09-21 06:52:00,39.0,30.0,-100.00,East,90,1.0,2.0,70,0.00,,,0.00,0.000000,,2013-09-21 12:52:00,
2013-09-21 07:02:00,39.0,30.0,-100.00,East,90,1.0,2.0,70,0.00,,,0.00,0.000000,,2013-09-21 13:02:00,
2013-09-21 07:11:00,39.0,30.0,-100.00,East,90,1.0,2.0,70,0.00,,,0.00,0.000000,,2013-09-21 13:11:00,
2013-09-21 07:21:00,39.0,30.0,-100.00,East,90,1.0,2.0,70,0.00,,,0.00,0.000000,,2013-09-21 13:21:00,
2013-09-21 07:22:00,43.0,31.0,-100.00,NW,326,0.0,2.0,63,0.00,,,-99.99,11.000000,,2013-09-21 13:22:00,
2013-09-21 07:53:00,43.0,31.0,-100.00,NW,326,0.0,2.0,63,0.00,,,-99.99,11.000000,,2013-09-21 13:53:00,
2013-09-21 08:02:00,43.0,31.0,-100.00,NW,326,0.0,2.0,63,0.00,,,-99.99,11.000000,,2013-09-21 14:02:00,
2013-09-21 08:11:00,43.0,31.0,-100.00,NW,326,0.0,2.0,63,0.00,,,-99.99,11.000000,,2013-09-21 14:11:00,
2013-09-21 08:22:00,48.0,33.0,-100.00,NW,311,1.0,3.0,55,0.00,,,0.00,184.000000,,2013-09-21 14:22:00,
2013-09-21 08:52:00,48.0,33.0,-100.00,NW,311,1.0,3.0,55,0.00,,,0.00,184.000000,,2013-09-21 14:52:00,
2013-09-21 09:01:00,48.0,33.0,-100.00,NW,311,1.0,3.0,55,0.00,,,0.00,184.000000,,2013-09-21 15:01:00,
2013-09-21 09:12:00,48.0,33.0,-100.00,NW,311,1.0,3.0,55,0.00,,,0.00,184.000000,,2013-09-21 15:12:00,
2013-09-21 09:22:00,50.0,35.0,-100.00,West,269,2.0,3.0,56,0.00,,,0.00,423.000000,,2013-09-21 15:22:00,
2013-09-21 09:55:00,50.0,35.0,-100.00,West,269,2.0,3.0,56,0.00,,,0.00,423.000000,,2013-09-21 15:55:00,
2013-09-21 10:05:00,50.0,35.0,-100.00,West,269,2.0,3.0,56,0.00,,,0.00,423.000000,,2013-09-21 16:05:00,
2013-09-21 10:14:00,50.0,35.0,-100.00,West,269,2.0,3.0,56,0.00,,,0.00,423.000000,,2013-09-21 16:14:00,
2013-09-21 10:22:00,52.0,32.0,-100.00,WNW,289,3.0,4.0,47,0.00,,,0.00,589.000000,,2013-09-21 16:22:00,
2013-09-21 10:54:00,52.0,32.0,-100.00,WNW,289,3.0,4.0,47,0.00,,,0.00,589.000000,,2013-09-21 16:54:00,
2013-09-21 11:03:00,52.0,32.0,-100.00,WNW,289,3.0,4.0,47,0.00,,,0.00,589.000000,,2013-09-21 17:03:00,
2013-09-21 11:12:00,52.0,32.0,-100.00,WNW,289,3.0,4.0,47,0.00,,,0.00,589.000000,,2013-09-21 17:12:00,
2013-09-21 11:22:00,61.0,32.0,-100.00,West,280,2.0,3.0,33,0.00,,,0.00,717.000000,,2013-09-21 17:22:00,
2013-09-21 11:52:00,61.0,32.0,-100.00,West,280,2.0,3.0,33,0.00,,,0.00,717.000000,,2013-09-21 17:52:00,
2013-09-21 12:02:00,61.0,32.0,-100.00,West,280,2.0,3.0,33,0.00,,,0.00,717.000000,,2013-09-21 18:02:00,
2013-09-21 12:12:00,61.0,32.0,-100.00,West,280,2.0,3.0,33,0.00,,,0.00,717.000000,,2013-09-21 18:12:00,
2013-09-21 12:52:00,62.0,35.0,-100.00,WNW,300,4.0,7.0,36,0.00,,,0.00,770.000000,,2013-09-21 18:52:00,
2013-09-21 13:02:00,62.0,35.0,-100.00,WNW,300,4.0,7.0,36,0.00,,,0.00,770.000000,,2013-09-21 19:02:00,
2013-09-21 13:11:00,62.0,35.0,-100.00,WNW,300,4.0,7.0,36,0.00,,,0.00,770.000000,,2013-09-21 19:11:00,
2013-09-21 13:21:00,62.0,35.0,-100.00,WNW,300,4.0,7.0,36,0.00,,,0.00,770.000000,,2013-09-21 19:21:00,
2013-09-21 13:22:00,66.0,34.0,-100.00,West,278,6.0,12.0,31,0.00,,,0.00,840.000000,,2013-09-21 19:22:00,
2013-09-21 13:52:00,66.0,34.0,-100.00,West,278,6.0,12.0,31,0.00,,,0.00,840.000000,,2013-09-21 19:52:00,
2013-09-21 14:02:00,66.0,34.0,-100.00,West,278,6.0,12.0,31,0.00,,,0.00,840.000000,,2013-09-21 20:02:00,
2013-09-21 14:12:00,66.0,34.0,-100.00,West,278,6.0,12.0,31,0.00,,,0.00,840.000000,,2013-09-21 20:12:00,
2013-09-21 14:22:00,67.0,35.0,-100.00,WNW,292,5.0,12.0,31,0.00,,,0.00,679.000000,,2013-09-21 20:22:00,
2013-09-21 14:52:00,67.0,35.0,-100.00,WNW,292,5.0,12.0,31,0.00,,,0.00,679.000000,,2013-09-21 20:52:00,
2013-09-21 15:02:00,67.0,35.0,-100.00,WNW,292,5.0,12.0,31,0.00,,,0.00,679.000000,,2013-09-21 21:02:00,
2013-09-21 15:12:00,67.0,35.0,-100.00,WNW,292,5.0,12.0,31,0.00,,,0.00,679.000000,,2013-09-21 21:12:00,
2013-09-21 15:22:00,65.0,34.0,-100.00,West,277,5.0,11.0,31,0.00,,,0.00,520.000000,,2013-09-21 21:22:00,
2013-09-21 15:54:00,65.0,34.0,-100.00,West,277,5.0,11.0,31,0.00,,,0.00,520.000000,,2013-09-21 21:54:00,
2013-09-21 16:05:00,65.0,34.0,-100.00,West,277,5.0,11.0,31,0.00,,,0.00,520.000000,,2013-09-21 22:05:00,
2013-09-21 16:14:00,65.0,34.0,-100.00,West,277,5.0,11.0,31,0.00,,,0.00,520.000000,,2013-09-21 22:14:00,
2013-09-21 16:22:00,67.0,32.0,-100.00,WNW,282,3.0,12.0,27,0.00,,,0.00,504.000000,,2013-09-21 22:22:00,
2013-09-21 16:53:00,67.0,32.0,-100.00,WNW,282,3.0,12.0,27,0.00,,,0.00,504.000000,,2013-09-21 22:53:00,
2013-09-21 17:03:00,67.0,32.0,-100.00,WNW,282,3.0,12.0,27,0.00,,,0.00,504.000000,,2013-09-21 23:03:00,
2013-09-21 17:13:00,67.0,32.0,-100.00,WNW,282,3.0,12.0,27,0.00,,,0.00,504.000000,,2013-09-21 23:13:00,
2013-09-21 17:22:00,63.0,33.0,-100.00,WNW,282,4.0,10.0,32,0.00,,,0.00,301.000000,,2013-09-21 23:22:00,
2013-09-21 17:53:00,63.0,33.0,-100.00,WNW,282,4.0,10.0,32,0.00,,,0.00,301.000000,,2013-09-21 23:53:00,
2013-09-21 18:02:00,63.0,33.0,-100.00,WNW,282,4.0,10.0,32,0.00,,,0.00,301.000000,,2013-09-22 00:02:00,
2013-09-21 18:12:00,63.0,33.0,-100.00,WNW,282,4.0,10.0,32,0.00,,,0.00,301.000000,,2013-09-22 00:12:00,
2013-09-21 18:52:00,59.0,37.0,-100.00,South,170,2.0,9.0,43,0.00,,,0.00,113.000000,,2013-09-22 00:52:00,
2013-09-21 19:02:00,59.0,37.0,-100.00,South,170,2.0,9.0,43,0.00,,,0.00,113.000000,,2013-09-22 01:02:00,
2013-09-21 19:12:00,59.0,37.0,-100.00,South,170,2.0,9.0,43,0.00,,,0.00,113.000000,,2013-09-22 01:12:00,
2013-09-21 19:21:00,59.0,37.0,-100.00,South,170,2.0,9.0,43,0.00,,,0.00,113.000000,,2013-09-22 01:21:00,
2013-09-21 19:22:00,56.0,38.0,-100.00,SSW,199,5.0,7.0,51,0.00,,,0.00,22.000000,,2013-09-22 01:22:00,
2013-09-21 19:52:00,56.0,38.0,-100.00,SSW,199,5.0,7.0,51,0.00,,,0.00,22.000000,,2013-09-22 01:52:00,
2013-09-21 20:02:00,56.0,38.0,-100.00,SSW,199,5.0,7.0,51,0.00,,,0.00,22.000000,,2013-09-22 02:02:00,
2013-09-21 20:12:00,56.0,38.0,-100.00,SSW,199,5.0,7.0,51,0.00,,,0.00,22.000000,,2013-09-22 02:12:00,
2013-09-21 20:22:00,54.0,36.0,-100.00,South,189,4.0,10.0,51,0.00,,,0.00,0.000000,,2013-09-22 02:22:00,
2013-09-21 20:52:00,54.0,36.0,-100.00,South,189,4.0,10.0,51,0.00,,,0.00,0.000000,,2013-09-22 02:52:00,
2013-09-21 21:02:00,54.0,36.0,-100.00,South,189,4.0,10.0,51,0.00,,,0.00,0.000000,,2013-09-22 03:02:00,
2013-09-21 21:12:00,54.0,36.0,-100.00,South,189,4.0,10.0,51,0.00,,,0.00,0.000000,,2013-09-22 03:12:00,
2013-09-21 21:22:00,51.0,36.0,-100.00,SSW,203,0.0,4.0,57,0.00,,,0.00,0.000000,,2013-09-22 03:22:00,
2013-09-21 21:54:00,51.0,36.0,-100.00,SSW,203,0.0,4.0,57,0.00,,,0.00,0.000000,,2013-09-22 03:54:00,
2013-09-21 22:02:00,-999.0,-99.9,-100.00,SSW,203,0.0,4.0,-999,-99.99,,,-99.99,0.000000,,2013-09-22 04:02:00,
2013-09-21 22:14:00,51.0,36.0,-100.00,SSW,203,0.0,4.0,57,0.00,,,0.00,0.000000,,2013-09-22 04:14:00,
2013-09-21 22:22:00,51.0,37.0,-100.00,ESE,110,2.0,5.0,59,0.00,,,0.00,0.000000,,2013-09-22 04:22:00,
2013-09-21 22:54:00,51.0,37.0,-100.00,ESE,110,2.0,5.0,59,0.00,,,0.00,0.000000,,2013-09-22 04:54:00,
2013-09-21 23:03:00,51.0,37.0,-100.00,ESE,110,2.0,5.0,59,0.00,,,0.00,0.000000,,2013-09-22 05:03:00,
2013-09-21 23:13:00,51.0,37.0,-100.00,ESE,110,2.0,5.0,59,0.00,,,0.00,0.000000,,2013-09-22 05:13:00,
2013-09-21 23:22:00,50.0,37.0,-100.00,ESE,104,2.0,3.0,61,0.00,,,0.00,0.000000,,2013-09-22 05:22:00,
2013-09-21 23:53:00,50.0,37.0,-100.00,ESE,104,2.0,3.0,61,0.00,,,0.00,0.000000,,2013-09-22 05:53:00,